sensor_id;sensor_type;location;lat;lon;timestamp;temperature;humidity
43884;DHT22;29544;52.018;5.810;2023-07-24T00:00:02;21.70;70.10
43884;DHT22;29544;52.018;5.810;2023-07-24T00:02:28;21.70;70.00
43884;DHT22;29544;52.018;5.810;2023-07-24T00:04:53;21.70;70.10
43884;DHT22;29544;52.018;5.810;2023-07-24T00:07:19;21.70;70.10
43884;DHT22;29544;52.018;5.810;2023-07-24T00:09:44;21.70;70.00
43884;DHT22;29544;52.018;5.810;2023-07-24T00:12:09;21.70;70.00
43884;DHT22;29544;52.018;5.810;2023-07-24T00:14:35;21.70;70.00
43884;DHT22;29544;52.018;5.810;2023-07-24T00:17:00;21.70;70.00
43884;DHT22;29544;52.018;5.810;2023-07-24T00:19:26;21.70;70.00
43884;DHT22;29544;52.018;5.810;2023-07-24T00:21:51;21.70;70.10
43884;DHT22;29544;52.018;5.810;2023-07-24T00:24:17;21.70;70.00
43884;DHT22;29544;52.018;5.810;2023-07-24T00:26:42;21.60;70.10
43884;DHT22;29544;52.018;5.810;2023-07-24T00:29:08;21.70;70.10
43884;DHT22;29544;52.018;5.810;2023-07-24T00:31:33;21.60;70.10
43884;DHT22;29544;52.018;5.810;2023-07-24T00:33:58;21.60;70.00
43884;DHT22;29544;52.018;5.810;2023-07-24T00:36:26;21.60;70.10
43884;DHT22;29544;52.018;5.810;2023-07-24T00:38:51;21.70;70.20
43884;DHT22;29544;52.018;5.810;2023-07-24T00:41:16;21.60;70.10
43884;DHT22;29544;52.018;5.810;2023-07-24T00:43:42;21.70;70.20
43884;DHT22;29544;52.018;5.810;2023-07-24T00:46:08;21.60;70.10
43884;DHT22;29544;52.018;5.810;2023-07-24T00:48:33;21.60;70.20
43884;DHT22;29544;52.018;5.810;2023-07-24T00:50:59;21.60;70.10
43884;DHT22;29544;52.018;5.810;2023-07-24T00:53:24;21.60;70.20
43884;DHT22;29544;52.018;5.810;2023-07-24T00:55:50;21.60;70.20
43884;DHT22;29544;52.018;5.810;2023-07-24T00:58:16;21.60;70.10
43884;DHT22;29544;52.018;5.810;2023-07-24T01:00:41;21.60;70.00
43884;DHT22;29544;52.018;5.810;2023-07-24T01:03:07;21.70;70.10
43884;DHT22;29544;52.018;5.810;2023-07-24T01:05:33;21.60;70.10
43884;DHT22;29544;52.018;5.810;2023-07-24T01:07:58;21.60;70.10
43884;DHT22;29544;52.018;5.810;2023-07-24T01:10:24;21.60;70.00
43884;DHT22;29544;52.018;5.810;2023-07-24T01:15:42;21.60;70.00
43884;DHT22;29544;52.018;5.810;2023-07-24T01:18:08;21.60;70.00
43884;DHT22;29544;52.018;5.810;2023-07-24T01:20:35;21.60;69.90
43884;DHT22;29544;52.018;5.810;2023-07-24T01:25:33;21.60;70.00
43884;DHT22;29544;52.018;5.810;2023-07-24T01:28:06;21.60;70.00
43884;DHT22;29544;52.018;5.810;2023-07-24T01:30:31;21.60;70.00
43884;DHT22;29544;52.018;5.810;2023-07-24T01:32:57;21.60;70.00
43884;DHT22;29544;52.018;5.810;2023-07-24T01:35:22;21.60;70.00
43884;DHT22;29544;52.018;5.810;2023-07-24T01:37:48;21.50;70.00
43884;DHT22;29544;52.018;5.810;2023-07-24T01:40:13;21.50;69.90
43884;DHT22;29544;52.018;5.810;2023-07-24T01:42:40;21.60;70.10
43884;DHT22;29544;52.018;5.810;2023-07-24T01:45:05;21.50;70.00
43884;DHT22;29544;52.018;5.810;2023-07-24T01:47:31;21.60;70.00
43884;DHT22;29544;52.018;5.810;2023-07-24T01:49:57;21.60;70.00
43884;DHT22;29544;52.018;5.810;2023-07-24T01:52:22;21.60;70.10
43884;DHT22;29544;52.018;5.810;2023-07-24T01:54:48;21.60;70.10
43884;DHT22;29544;52.018;5.810;2023-07-24T01:57:13;21.50;70.10
43884;DHT22;29544;52.018;5.810;2023-07-24T01:59:39;21.50;70.00
43884;DHT22;29544;52.018;5.810;2023-07-24T02:02:04;21.50;70.00
43884;DHT22;29544;52.018;5.810;2023-07-24T02:04:30;21.50;70.10
43884;DHT22;29544;52.018;5.810;2023-07-24T02:06:55;21.50;70.10
43884;DHT22;29544;52.018;5.810;2023-07-24T02:09:21;21.50;70.10
43884;DHT22;29544;52.018;5.810;2023-07-24T02:11:46;21.50;70.10
43884;DHT22;29544;52.018;5.810;2023-07-24T02:14:12;21.50;70.00
43884;DHT22;29544;52.018;5.810;2023-07-24T02:16:38;21.50;70.10
43884;DHT22;29544;52.018;5.810;2023-07-24T02:19:03;21.50;70.00
43884;DHT22;29544;52.018;5.810;2023-07-24T02:21:28;21.50;70.00
43884;DHT22;29544;52.018;5.810;2023-07-24T02:23:54;21.50;70.00
43884;DHT22;29544;52.018;5.810;2023-07-24T02:26:19;21.50;70.10
43884;DHT22;29544;52.018;5.810;2023-07-24T02:28:45;21.50;70.10
43884;DHT22;29544;52.018;5.810;2023-07-24T02:31:11;21.50;70.00
43884;DHT22;29544;52.018;5.810;2023-07-24T02:33:36;21.50;70.00
43884;DHT22;29544;52.018;5.810;2023-07-24T02:36:02;21.50;70.10
43884;DHT22;29544;52.018;5.810;2023-07-24T02:38:27;21.50;70.10
43884;DHT22;29544;52.018;5.810;2023-07-24T02:40:53;21.50;70.00
43884;DHT22;29544;52.018;5.810;2023-07-24T02:43:18;21.50;70.00
43884;DHT22;29544;52.018;5.810;2023-07-24T02:45:44;21.50;70.00
43884;DHT22;29544;52.018;5.810;2023-07-24T02:48:09;21.50;70.60
43884;DHT22;29544;52.018;5.810;2023-07-24T02:50:35;21.50;69.90
43884;DHT22;29544;52.018;5.810;2023-07-24T02:53:00;21.50;70.00
43884;DHT22;29544;52.018;5.810;2023-07-24T02:55:26;21.40;70.00
43884;DHT22;29544;52.018;5.810;2023-07-24T02:57:51;21.40;69.90
43884;DHT22;29544;52.018;5.810;2023-07-24T03:00:17;21.40;70.00
43884;DHT22;29544;52.018;5.810;2023-07-24T03:02:42;21.40;69.90
43884;DHT22;29544;52.018;5.810;2023-07-24T03:05:08;21.50;70.00
43884;DHT22;29544;52.018;5.810;2023-07-24T03:07:33;21.40;70.00
43884;DHT22;29544;52.018;5.810;2023-07-24T03:09:59;21.50;69.90
43884;DHT22;29544;52.018;5.810;2023-07-24T03:12:24;21.50;70.00
43884;DHT22;29544;52.018;5.810;2023-07-24T03:14:50;21.40;70.00
43884;DHT22;29544;52.018;5.810;2023-07-24T03:17:16;21.40;70.00
43884;DHT22;29544;52.018;5.810;2023-07-24T03:19:41;21.40;69.90
43884;DHT22;29544;52.018;5.810;2023-07-24T03:22:07;21.40;69.90
43884;DHT22;29544;52.018;5.810;2023-07-24T03:24:33;21.40;69.80
43884;DHT22;29544;52.018;5.810;2023-07-24T03:26:59;21.40;69.90
43884;DHT22;29544;52.018;5.810;2023-07-24T03:29:25;21.40;69.90
43884;DHT22;29544;52.018;5.810;2023-07-24T03:31:51;21.40;69.80
43884;DHT22;29544;52.018;5.810;2023-07-24T03:34:16;21.40;69.90
43884;DHT22;29544;52.018;5.810;2023-07-24T03:36:42;21.40;69.80
43884;DHT22;29544;52.018;5.810;2023-07-24T03:39:08;21.40;69.90
43884;DHT22;29544;52.018;5.810;2023-07-24T03:41:34;21.40;69.90
43884;DHT22;29544;52.018;5.810;2023-07-24T03:43:59;21.40;69.80
43884;DHT22;29544;52.018;5.810;2023-07-24T03:46:25;21.40;69.80
43884;DHT22;29544;52.018;5.810;2023-07-24T03:48:50;21.40;69.90
43884;DHT22;29544;52.018;5.810;2023-07-24T03:51:16;21.40;69.90
43884;DHT22;29544;52.018;5.810;2023-07-24T03:53:41;21.40;69.80
43884;DHT22;29544;52.018;5.810;2023-07-24T03:56:07;21.40;69.90
43884;DHT22;29544;52.018;5.810;2023-07-24T03:58:32;21.40;69.80
43884;DHT22;29544;52.018;5.810;2023-07-24T04:00:58;21.40;69.90
43884;DHT22;29544;52.018;5.810;2023-07-24T04:03:23;21.40;69.90
43884;DHT22;29544;52.018;5.810;2023-07-24T04:05:49;21.40;69.80
43884;DHT22;29544;52.018;5.810;2023-07-24T04:08:14;21.40;69.80
43884;DHT22;29544;52.018;5.810;2023-07-24T04:10:39;21.40;70.00
43884;DHT22;29544;52.018;5.810;2023-07-24T04:13:05;21.40;69.90
43884;DHT22;29544;52.018;5.810;2023-07-24T04:15:30;21.40;69.80
43884;DHT22;29544;52.018;5.810;2023-07-24T04:17:56;21.40;69.80
43884;DHT22;29544;52.018;5.810;2023-07-24T04:20:21;21.40;69.80
43884;DHT22;29544;52.018;5.810;2023-07-24T04:22:47;21.30;69.80
43884;DHT22;29544;52.018;5.810;2023-07-24T04:25:12;21.40;69.80
43884;DHT22;29544;52.018;5.810;2023-07-24T04:27:38;21.40;69.80
43884;DHT22;29544;52.018;5.810;2023-07-24T04:30:03;21.40;69.90
43884;DHT22;29544;52.018;5.810;2023-07-24T04:32:29;21.30;69.60
43884;DHT22;29544;52.018;5.810;2023-07-24T04:34:54;21.40;69.70
43884;DHT22;29544;52.018;5.810;2023-07-24T04:37:20;21.40;69.80
43884;DHT22;29544;52.018;5.810;2023-07-24T04:39:45;21.30;69.80
43884;DHT22;29544;52.018;5.810;2023-07-24T04:42:11;21.30;69.70
43884;DHT22;29544;52.018;5.810;2023-07-24T04:44:36;21.30;69.70
43884;DHT22;29544;52.018;5.810;2023-07-24T04:47:02;21.30;69.80
43884;DHT22;29544;52.018;5.810;2023-07-24T04:49:31;21.30;69.70
43884;DHT22;29544;52.018;5.810;2023-07-24T04:51:58;21.30;69.80
43884;DHT22;29544;52.018;5.810;2023-07-24T04:54:23;21.30;69.80
43884;DHT22;29544;52.018;5.810;2023-07-24T04:56:49;21.30;69.70
43884;DHT22;29544;52.018;5.810;2023-07-24T04:59:14;21.30;69.80
43884;DHT22;29544;52.018;5.810;2023-07-24T05:01:40;21.40;69.70
43884;DHT22;29544;52.018;5.810;2023-07-24T05:04:05;21.30;69.80
43884;DHT22;29544;52.018;5.810;2023-07-24T05:06:31;21.40;69.70
43884;DHT22;29544;52.018;5.810;2023-07-24T05:08:56;21.30;69.80
43884;DHT22;29544;52.018;5.810;2023-07-24T05:11:22;21.30;69.70
43884;DHT22;29544;52.018;5.810;2023-07-24T05:13:47;21.30;69.70
43884;DHT22;29544;52.018;5.810;2023-07-24T05:16:13;21.30;69.70
43884;DHT22;29544;52.018;5.810;2023-07-24T05:18:38;21.30;69.80
43884;DHT22;29544;52.018;5.810;2023-07-24T05:21:03;21.30;69.60
43884;DHT22;29544;52.018;5.810;2023-07-24T05:23:29;21.30;69.80
43884;DHT22;29544;52.018;5.810;2023-07-24T05:25:58;21.30;69.60
43884;DHT22;29544;52.018;5.810;2023-07-24T05:28:24;21.30;69.70
43884;DHT22;29544;52.018;5.810;2023-07-24T05:30:51;21.30;69.70
43884;DHT22;29544;52.018;5.810;2023-07-24T05:33:16;21.30;69.80
43884;DHT22;29544;52.018;5.810;2023-07-24T05:35:42;21.30;69.80
43884;DHT22;29544;52.018;5.810;2023-07-24T05:38:08;21.30;69.80
43884;DHT22;29544;52.018;5.810;2023-07-24T05:40:34;21.30;69.70
43884;DHT22;29544;52.018;5.810;2023-07-24T05:42:59;21.30;69.80
43884;DHT22;29544;52.018;5.810;2023-07-24T05:45:26;21.30;69.80
43884;DHT22;29544;52.018;5.810;2023-07-24T05:47:51;21.30;69.70
43884;DHT22;29544;52.018;5.810;2023-07-24T05:50:17;21.30;69.80
43884;DHT22;29544;52.018;5.810;2023-07-24T05:52:42;21.30;69.80
43884;DHT22;29544;52.018;5.810;2023-07-24T05:55:08;21.30;69.80
43884;DHT22;29544;52.018;5.810;2023-07-24T05:57:33;21.30;69.70
43884;DHT22;29544;52.018;5.810;2023-07-24T05:59:59;21.30;69.80
43884;DHT22;29544;52.018;5.810;2023-07-24T06:02:24;21.30;69.80
43884;DHT22;29544;52.018;5.810;2023-07-24T06:04:50;21.30;69.80
43884;DHT22;29544;52.018;5.810;2023-07-24T06:07:15;21.30;69.90
43884;DHT22;29544;52.018;5.810;2023-07-24T06:09:41;21.30;69.80
43884;DHT22;29544;52.018;5.810;2023-07-24T06:12:06;21.30;69.80
43884;DHT22;29544;52.018;5.810;2023-07-24T06:14:32;21.30;69.70
43884;DHT22;29544;52.018;5.810;2023-07-24T06:16:57;21.30;69.80
43884;DHT22;29544;52.018;5.810;2023-07-24T06:19:23;21.30;69.80
43884;DHT22;29544;52.018;5.810;2023-07-24T06:21:48;21.30;69.80
43884;DHT22;29544;52.018;5.810;2023-07-24T06:24:13;21.30;69.80
43884;DHT22;29544;52.018;5.810;2023-07-24T06:26:39;21.30;69.80
43884;DHT22;29544;52.018;5.810;2023-07-24T06:29:05;21.30;69.80
43884;DHT22;29544;52.018;5.810;2023-07-24T06:31:30;21.30;69.80
43884;DHT22;29544;52.018;5.810;2023-07-24T06:33:55;21.30;69.90
43884;DHT22;29544;52.018;5.810;2023-07-24T06:36:21;21.30;69.80
43884;DHT22;29544;52.018;5.810;2023-07-24T06:38:46;21.30;69.80
43884;DHT22;29544;52.018;5.810;2023-07-24T06:41:13;21.30;69.80
43884;DHT22;29544;52.018;5.810;2023-07-24T06:43:40;21.30;69.80
43884;DHT22;29544;52.018;5.810;2023-07-24T06:46:06;21.30;69.80
43884;DHT22;29544;52.018;5.810;2023-07-24T06:48:31;21.30;69.60
43884;DHT22;29544;52.018;5.810;2023-07-24T06:50:57;21.30;69.70
43884;DHT22;29544;52.018;5.810;2023-07-24T06:53:22;21.30;69.70
43884;DHT22;29544;52.018;5.810;2023-07-24T06:55:48;21.30;69.60
43884;DHT22;29544;52.018;5.810;2023-07-24T06:58:13;21.30;69.80
43884;DHT22;29544;52.018;5.810;2023-07-24T07:00:39;21.30;69.60
43884;DHT22;29544;52.018;5.810;2023-07-24T07:03:04;21.30;69.80
43884;DHT22;29544;52.018;5.810;2023-07-24T07:05:31;21.30;69.60
43884;DHT22;29544;52.018;5.810;2023-07-24T07:07:56;21.30;69.80
43884;DHT22;29544;52.018;5.810;2023-07-24T07:10:22;21.30;69.80
43884;DHT22;29544;52.018;5.810;2023-07-24T07:12:47;21.30;69.60
43884;DHT22;29544;52.018;5.810;2023-07-24T07:15:13;21.30;69.90
43884;DHT22;29544;52.018;5.810;2023-07-24T07:17:38;21.30;69.90
43884;DHT22;29544;52.018;5.810;2023-07-24T07:20:04;21.30;70.10
43884;DHT22;29544;52.018;5.810;2023-07-24T07:22:30;21.30;70.30
43884;DHT22;29544;52.018;5.810;2023-07-24T07:24:55;21.30;70.30
43884;DHT22;29544;52.018;5.810;2023-07-24T07:27:20;21.30;70.30
43884;DHT22;29544;52.018;5.810;2023-07-24T07:29:46;21.30;71.00
43884;DHT22;29544;52.018;5.810;2023-07-24T07:32:11;21.30;70.80
43884;DHT22;29544;52.018;5.810;2023-07-24T07:34:37;21.30;70.70
43884;DHT22;29544;52.018;5.810;2023-07-24T07:37:04;21.30;70.60
43884;DHT22;29544;52.018;5.810;2023-07-24T07:39:30;21.30;71.10
43884;DHT22;29544;52.018;5.810;2023-07-24T07:41:55;21.30;71.20
43884;DHT22;29544;52.018;5.810;2023-07-24T07:44:21;21.30;71.00
43884;DHT22;29544;52.018;5.810;2023-07-24T07:46:46;21.30;71.20
43884;DHT22;29544;52.018;5.810;2023-07-24T07:49:11;21.30;71.50
43884;DHT22;29544;52.018;5.810;2023-07-24T07:51:37;21.30;71.50
43884;DHT22;29544;52.018;5.810;2023-07-24T07:54:02;21.30;71.70
43884;DHT22;29544;52.018;5.810;2023-07-24T07:56:28;21.30;71.50
43884;DHT22;29544;52.018;5.810;2023-07-24T07:58:53;21.30;71.30
43884;DHT22;29544;52.018;5.810;2023-07-24T08:01:19;21.30;71.20
43884;DHT22;29544;52.018;5.810;2023-07-24T08:03:45;21.30;71.90
43884;DHT22;29544;52.018;5.810;2023-07-24T08:06:10;21.30;71.50
43884;DHT22;29544;52.018;5.810;2023-07-24T08:08:36;21.30;71.40
43884;DHT22;29544;52.018;5.810;2023-07-24T08:11:05;21.30;71.30
43884;DHT22;29544;52.018;5.810;2023-07-24T08:13:31;21.30;71.30
43884;DHT22;29544;52.018;5.810;2023-07-24T08:15:57;21.30;71.40
43884;DHT22;29544;52.018;5.810;2023-07-24T08:18:22;21.30;71.70
43884;DHT22;29544;52.018;5.810;2023-07-24T08:20:48;21.30;71.50
43884;DHT22;29544;52.018;5.810;2023-07-24T08:23:13;21.30;71.50
43884;DHT22;29544;52.018;5.810;2023-07-24T08:25:39;21.30;71.50
43884;DHT22;29544;52.018;5.810;2023-07-24T08:28:04;21.30;71.70
43884;DHT22;29544;52.018;5.810;2023-07-24T08:30:30;21.30;71.70
43884;DHT22;29544;52.018;5.810;2023-07-24T08:32:56;21.30;71.70
43884;DHT22;29544;52.018;5.810;2023-07-24T08:35:22;21.30;72.10
43884;DHT22;29544;52.018;5.810;2023-07-24T08:37:48;21.30;72.80
43884;DHT22;29544;52.018;5.810;2023-07-24T08:40:14;21.30;73.00
43884;DHT22;29544;52.018;5.810;2023-07-24T08:42:41;21.30;72.60
43884;DHT22;29544;52.018;5.810;2023-07-24T08:45:11;21.20;73.10
43884;DHT22;29544;52.018;5.810;2023-07-24T08:47:37;21.30;72.90
43884;DHT22;29544;52.018;5.810;2023-07-24T08:50:03;21.30;72.90
43884;DHT22;29544;52.018;5.810;2023-07-24T08:52:29;21.30;72.70
43884;DHT22;29544;52.018;5.810;2023-07-24T08:54:55;21.30;72.70
43884;DHT22;29544;52.018;5.810;2023-07-24T08:57:22;21.30;72.70
43884;DHT22;29544;52.018;5.810;2023-07-24T08:59:47;21.30;72.60
43884;DHT22;29544;52.018;5.810;2023-07-24T09:02:13;21.30;72.70
43884;DHT22;29544;52.018;5.810;2023-07-24T09:04:38;21.20;72.70
43884;DHT22;29544;52.018;5.810;2023-07-24T09:07:03;21.20;72.80
43884;DHT22;29544;52.018;5.810;2023-07-24T09:09:29;21.20;72.40
43884;DHT22;29544;52.018;5.810;2023-07-24T09:11:56;21.20;72.30
43884;DHT22;29544;52.018;5.810;2023-07-24T09:14:24;21.20;72.30
43884;DHT22;29544;52.018;5.810;2023-07-24T09:16:49;21.20;72.30
43884;DHT22;29544;52.018;5.810;2023-07-24T09:19:18;21.30;72.20
43884;DHT22;29544;52.018;5.810;2023-07-24T09:21:44;21.20;72.50
43884;DHT22;29544;52.018;5.810;2023-07-24T09:24:10;21.20;72.30
43884;DHT22;29544;52.018;5.810;2023-07-24T09:26:45;21.30;72.40
43884;DHT22;29544;52.018;5.810;2023-07-24T09:29:11;21.30;72.20
43884;DHT22;29544;52.018;5.810;2023-07-24T09:31:36;21.30;72.40
43884;DHT22;29544;52.018;5.810;2023-07-24T09:34:02;21.30;72.30
43884;DHT22;29544;52.018;5.810;2023-07-24T09:36:36;21.30;72.20
43884;DHT22;29544;52.018;5.810;2023-07-24T09:39:01;21.30;72.30
43884;DHT22;29544;52.018;5.810;2023-07-24T09:41:31;21.30;72.60
43884;DHT22;29544;52.018;5.810;2023-07-24T09:43:59;21.30;72.30
43884;DHT22;29544;52.018;5.810;2023-07-24T09:46:25;21.30;72.40
43884;DHT22;29544;52.018;5.810;2023-07-24T09:48:51;21.30;72.20
43884;DHT22;29544;52.018;5.810;2023-07-24T09:51:17;21.30;72.20
43884;DHT22;29544;52.018;5.810;2023-07-24T09:53:43;21.40;72.10
43884;DHT22;29544;52.018;5.810;2023-07-24T09:56:13;21.30;72.00
43884;DHT22;29544;52.018;5.810;2023-07-24T09:58:39;21.30;71.90
43884;DHT22;29544;52.018;5.810;2023-07-24T10:01:06;21.30;71.90
43884;DHT22;29544;52.018;5.810;2023-07-24T10:03:39;21.40;71.90
43884;DHT22;29544;52.018;5.810;2023-07-24T10:06:05;21.30;71.80
43884;DHT22;29544;52.018;5.810;2023-07-24T10:08:31;21.30;71.60
43884;DHT22;29544;52.018;5.810;2023-07-24T10:10:58;21.30;71.60
43884;DHT22;29544;52.018;5.810;2023-07-24T10:13:25;21.30;71.70
43884;DHT22;29544;52.018;5.810;2023-07-24T10:15:51;21.40;71.70
43884;DHT22;29544;52.018;5.810;2023-07-24T10:18:16;21.40;71.60
43884;DHT22;29544;52.018;5.810;2023-07-24T10:20:45;21.40;71.50
43884;DHT22;29544;52.018;5.810;2023-07-24T10:23:11;21.40;71.40
43884;DHT22;29544;52.018;5.810;2023-07-24T10:25:40;21.40;71.20
43884;DHT22;29544;52.018;5.810;2023-07-24T10:28:07;21.40;71.20
43884;DHT22;29544;52.018;5.810;2023-07-24T10:30:33;21.40;71.20
43884;DHT22;29544;52.018;5.810;2023-07-24T10:33:09;21.40;71.30
43884;DHT22;29544;52.018;5.810;2023-07-24T10:35:39;21.40;70.90
43884;DHT22;29544;52.018;5.810;2023-07-24T10:38:04;21.40;70.70
43884;DHT22;29544;52.018;5.810;2023-07-24T10:40:32;21.30;70.60
43884;DHT22;29544;52.018;5.810;2023-07-24T10:43:04;21.40;70.70
43884;DHT22;29544;52.018;5.810;2023-07-24T10:48:13;21.30;70.60
43884;DHT22;29544;52.018;5.810;2023-07-24T10:50:43;21.30;70.50
43884;DHT22;29544;52.018;5.810;2023-07-24T10:53:12;21.30;70.50
43884;DHT22;29544;52.018;5.810;2023-07-24T10:55:38;21.40;70.50
43884;DHT22;29544;52.018;5.810;2023-07-24T10:58:04;21.40;70.40
43884;DHT22;29544;52.018;5.810;2023-07-24T11:00:29;21.40;70.50
43884;DHT22;29544;52.018;5.810;2023-07-24T11:02:55;21.40;71.10
43884;DHT22;29544;52.018;5.810;2023-07-24T11:05:21;21.40;70.50
43884;DHT22;29544;52.018;5.810;2023-07-24T11:07:47;21.40;70.50
43884;DHT22;29544;52.018;5.810;2023-07-24T11:10:19;21.40;70.60
43884;DHT22;29544;52.018;5.810;2023-07-24T11:12:45;21.40;70.60
43884;DHT22;29544;52.018;5.810;2023-07-24T11:15:11;21.40;70.70
43884;DHT22;29544;52.018;5.810;2023-07-24T11:17:36;21.40;70.70
43884;DHT22;29544;52.018;5.810;2023-07-24T11:20:09;21.40;70.70
43884;DHT22;29544;52.018;5.810;2023-07-24T11:22:35;21.40;70.70
43884;DHT22;29544;52.018;5.810;2023-07-24T11:25:00;21.40;70.70
43884;DHT22;29544;52.018;5.810;2023-07-24T11:27:30;21.40;70.70
43884;DHT22;29544;52.018;5.810;2023-07-24T11:29:55;21.40;70.70
43884;DHT22;29544;52.018;5.810;2023-07-24T11:32:21;21.40;70.70
43884;DHT22;29544;52.018;5.810;2023-07-24T11:34:47;21.40;70.70
43884;DHT22;29544;52.018;5.810;2023-07-24T11:37:13;21.50;70.70
43884;DHT22;29544;52.018;5.810;2023-07-24T11:39:39;21.50;70.90
43884;DHT22;29544;52.018;5.810;2023-07-24T11:42:04;21.40;71.00
43884;DHT22;29544;52.018;5.810;2023-07-24T11:44:30;21.50;71.60
43884;DHT22;29544;52.018;5.810;2023-07-24T11:47:05;21.50;71.40
43884;DHT22;29544;52.018;5.810;2023-07-24T11:49:31;21.50;71.20
43884;DHT22;29544;52.018;5.810;2023-07-24T11:52:06;21.50;71.20
43884;DHT22;29544;52.018;5.810;2023-07-24T11:54:34;21.50;71.50
43884;DHT22;29544;52.018;5.810;2023-07-24T11:57:00;21.50;71.40
43884;DHT22;29544;52.018;5.810;2023-07-24T11:59:25;21.50;71.30
43884;DHT22;29544;52.018;5.810;2023-07-24T12:01:51;21.50;71.30
43884;DHT22;29544;52.018;5.810;2023-07-24T12:04:17;21.50;71.20
43884;DHT22;29544;52.018;5.810;2023-07-24T12:06:42;21.50;71.20
43884;DHT22;29544;52.018;5.810;2023-07-24T12:09:08;21.50;71.20
43884;DHT22;29544;52.018;5.810;2023-07-24T12:11:44;21.60;71.40
43884;DHT22;29544;52.018;5.810;2023-07-24T12:14:11;21.60;71.80
43884;DHT22;29544;52.018;5.810;2023-07-24T12:16:36;21.60;71.40
43884;DHT22;29544;52.018;5.810;2023-07-24T12:19:02;21.60;71.20
43884;DHT22;29544;52.018;5.810;2023-07-24T12:21:28;21.60;70.90
43884;DHT22;29544;52.018;5.810;2023-07-24T12:23:53;21.60;71.10
43884;DHT22;29544;52.018;5.810;2023-07-24T12:26:18;21.70;71.40
43884;DHT22;29544;52.018;5.810;2023-07-24T12:28:44;21.70;71.40
43884;DHT22;29544;52.018;5.810;2023-07-24T12:31:09;21.70;71.30
43884;DHT22;29544;52.018;5.810;2023-07-24T12:33:35;21.60;71.10
43884;DHT22;29544;52.018;5.810;2023-07-24T12:36:00;21.70;71.00
43884;DHT22;29544;52.018;5.810;2023-07-24T12:38:27;21.70;71.80
43884;DHT22;29544;52.018;5.810;2023-07-24T12:40:52;21.70;71.20
43884;DHT22;29544;52.018;5.810;2023-07-24T12:43:18;21.70;71.30
43884;DHT22;29544;52.018;5.810;2023-07-24T12:45:43;21.80;71.50
43884;DHT22;29544;52.018;5.810;2023-07-24T12:48:09;21.70;71.70
43884;DHT22;29544;52.018;5.810;2023-07-24T12:50:34;21.70;71.50
43884;DHT22;29544;52.018;5.810;2023-07-24T12:53:00;21.70;71.30
43884;DHT22;29544;52.018;5.810;2023-07-24T12:55:25;21.70;71.10
43884;DHT22;29544;52.018;5.810;2023-07-24T12:57:52;21.80;71.80
43884;DHT22;29544;52.018;5.810;2023-07-24T13:00:17;21.80;72.00
43884;DHT22;29544;52.018;5.810;2023-07-24T13:02:43;21.80;72.20
43884;DHT22;29544;52.018;5.810;2023-07-24T13:05:09;21.90;72.20
43884;DHT22;29544;52.018;5.810;2023-07-24T13:07:34;22.00;72.40
43884;DHT22;29544;52.018;5.810;2023-07-24T13:09:59;22.00;72.00
43884;DHT22;29544;52.018;5.810;2023-07-24T13:12:25;22.00;71.50
43884;DHT22;29544;52.018;5.810;2023-07-24T13:14:50;22.00;71.40
43884;DHT22;29544;52.018;5.810;2023-07-24T13:17:16;22.00;71.40
43884;DHT22;29544;52.018;5.810;2023-07-24T13:19:41;22.10;71.10
43884;DHT22;29544;52.018;5.810;2023-07-24T13:22:07;22.10;71.00
43884;DHT22;29544;52.018;5.810;2023-07-24T13:24:32;22.10;71.10
43884;DHT22;29544;52.018;5.810;2023-07-24T13:26:58;22.20;71.10
43884;DHT22;29544;52.018;5.810;2023-07-24T13:29:23;22.20;70.80
43884;DHT22;29544;52.018;5.810;2023-07-24T13:31:49;22.20;70.50
43884;DHT22;29544;52.018;5.810;2023-07-24T13:34:15;22.20;70.50
43884;DHT22;29544;52.018;5.810;2023-07-24T13:36:43;22.30;70.10
43884;DHT22;29544;52.018;5.810;2023-07-24T13:39:08;22.30;69.90
43884;DHT22;29544;52.018;5.810;2023-07-24T13:41:33;22.30;69.30
43884;DHT22;29544;52.018;5.810;2023-07-24T13:44:01;22.30;69.20
43884;DHT22;29544;52.018;5.810;2023-07-24T13:46:26;22.30;69.80
43884;DHT22;29544;52.018;5.810;2023-07-24T13:48:52;22.40;69.60
43884;DHT22;29544;52.018;5.810;2023-07-24T13:51:17;22.40;69.30
43884;DHT22;29544;52.018;5.810;2023-07-24T13:53:42;22.40;69.70
43884;DHT22;29544;52.018;5.810;2023-07-24T13:56:08;22.50;69.60
43884;DHT22;29544;52.018;5.810;2023-07-24T13:58:34;22.50;69.20
43884;DHT22;29544;52.018;5.810;2023-07-24T14:01:00;22.50;68.90
43884;DHT22;29544;52.018;5.810;2023-07-24T14:03:25;22.60;68.50
43884;DHT22;29544;52.018;5.810;2023-07-24T14:05:54;22.60;69.10
43884;DHT22;29544;52.018;5.810;2023-07-24T14:08:19;22.60;68.90
43884;DHT22;29544;52.018;5.810;2023-07-24T14:10:45;22.60;68.70
43884;DHT22;29544;52.018;5.810;2023-07-24T14:13:10;22.60;68.50
43884;DHT22;29544;52.018;5.810;2023-07-24T14:15:36;22.60;68.40
43884;DHT22;29544;52.018;5.810;2023-07-24T14:18:01;22.60;68.50
43884;DHT22;29544;52.018;5.810;2023-07-24T14:20:27;22.60;68.50
43884;DHT22;29544;52.018;5.810;2023-07-24T14:22:52;22.50;68.40
43884;DHT22;29544;52.018;5.810;2023-07-24T14:25:18;22.50;68.50
43884;DHT22;29544;52.018;5.810;2023-07-24T14:27:43;22.50;68.50
43884;DHT22;29544;52.018;5.810;2023-07-24T14:30:09;22.60;68.50
43884;DHT22;29544;52.018;5.810;2023-07-24T14:32:35;22.50;68.40
43884;DHT22;29544;52.018;5.810;2023-07-24T14:35:00;22.50;68.50
43884;DHT22;29544;52.018;5.810;2023-07-24T14:37:25;22.50;68.50
43884;DHT22;29544;52.018;5.810;2023-07-24T14:39:51;22.50;68.50
43884;DHT22;29544;52.018;5.810;2023-07-24T14:42:16;22.50;68.60
43884;DHT22;29544;52.018;5.810;2023-07-24T14:44:42;22.50;68.50
43884;DHT22;29544;52.018;5.810;2023-07-24T14:47:07;22.50;68.60
43884;DHT22;29544;52.018;5.810;2023-07-24T14:49:33;22.50;68.60
43884;DHT22;29544;52.018;5.810;2023-07-24T14:51:59;22.50;68.60
43884;DHT22;29544;52.018;5.810;2023-07-24T14:54:24;22.50;68.70
43884;DHT22;29544;52.018;5.810;2023-07-24T14:56:50;22.50;68.70
43884;DHT22;29544;52.018;5.810;2023-07-24T14:59:15;22.40;68.70
43884;DHT22;29544;52.018;5.810;2023-07-24T15:01:40;22.50;68.80
43884;DHT22;29544;52.018;5.810;2023-07-24T15:04:06;22.50;68.80
43884;DHT22;29544;52.018;5.810;2023-07-24T15:06:31;22.40;68.90
43884;DHT22;29544;52.018;5.810;2023-07-24T15:08:57;22.50;69.00
43884;DHT22;29544;52.018;5.810;2023-07-24T15:11:22;22.50;69.10
43884;DHT22;29544;52.018;5.810;2023-07-24T15:13:48;22.40;69.10
43884;DHT22;29544;52.018;5.810;2023-07-24T15:16:14;22.40;69.20
43884;DHT22;29544;52.018;5.810;2023-07-24T15:18:39;22.40;69.20
43884;DHT22;29544;52.018;5.810;2023-07-24T15:21:05;22.40;69.60
43884;DHT22;29544;52.018;5.810;2023-07-24T15:23:30;22.40;69.50
43884;DHT22;29544;52.018;5.810;2023-07-24T15:25:56;22.40;69.50
43884;DHT22;29544;52.018;5.810;2023-07-24T15:28:21;22.40;69.70